sensor_id;sensor_type;location;lat;lon;timestamp;P1;durP1;ratioP1;P2;durP2;ratioP2
7471;SDS011;3777;48.722;8.110;2023-04-01T00:01:40;3.93;;;1.50;;
7471;SDS011;3777;48.722;8.110;2023-04-01T00:04:09;5.77;;;2.10;;
7471;SDS011;3777;48.722;8.110;2023-04-01T00:06:35;6.17;;;1.87;;
7471;SDS011;3777;48.722;8.110;2023-04-01T00:09:02;4.07;;;1.67;;
7471;SDS011;3777;48.722;8.110;2023-04-01T00:11:29;5.80;;;2.00;;
7471;SDS011;3777;48.722;8.110;2023-04-01T00:13:56;6.10;;;1.70;;
7471;SDS011;3777;48.722;8.110;2023-04-01T00:16:23;3.10;;;1.70;;
7471;SDS011;3777;48.722;8.110;2023-04-01T00:18:50;4.53;;;1.60;;
7471;SDS011;3777;48.722;8.110;2023-04-01T00:21:19;3.77;;;1.57;;
7471;SDS011;3777;48.722;8.110;2023-04-01T00:23:47;6.37;;;1.70;;
7471;SDS011;3777;48.722;8.110;2023-04-01T00:26:14;3.37;;;1.60;;
7471;SDS011;3777;48.722;8.110;2023-04-01T00:28:44;4.57;;;2.07;;
7471;SDS011;3777;48.722;8.110;2023-04-01T00:31:11;4.80;;;1.60;;
7471;SDS011;3777;48.722;8.110;2023-04-01T00:33:39;2.60;;;1.70;;
7471;SDS011;3777;48.722;8.110;2023-04-01T00:36:07;3.17;;;1.47;;
7471;SDS011;3777;48.722;8.110;2023-04-01T00:38:37;4.53;;;1.60;;
7471;SDS011;3777;48.722;8.110;2023-04-01T00:41:06;3.93;;;1.73;;
7471;SDS011;3777;48.722;8.110;2023-04-01T00:43:33;3.27;;;1.20;;
7471;SDS011;3777;48.722;8.110;2023-04-01T00:46:01;4.40;;;1.40;;
7471;SDS011;3777;48.722;8.110;2023-04-01T00:48:28;2.57;;;1.40;;
7471;SDS011;3777;48.722;8.110;2023-04-01T00:50:58;2.97;;;1.40;;
7471;SDS011;3777;48.722;8.110;2023-04-01T00:53:28;4.77;;;1.70;;
7471;SDS011;3777;48.722;8.110;2023-04-01T00:56:00;3.17;;;1.50;;
7471;SDS011;3777;48.722;8.110;2023-04-01T00:58:31;2.90;;;1.60;;
7471;SDS011;3777;48.722;8.110;2023-04-01T01:01:01;2.27;;;1.40;;
7471;SDS011;3777;48.722;8.110;2023-04-01T01:03:28;1.60;;;1.30;;
7471;SDS011;3777;48.722;8.110;2023-04-01T01:06:08;2.70;;;1.20;;
7471;SDS011;3777;48.722;8.110;2023-04-01T01:08:58;3.00;;;1.33;;
7471;SDS011;3777;48.722;8.110;2023-04-01T01:11:37;2.43;;;1.40;;
7471;SDS011;3777;48.722;8.110;2023-04-01T01:14:10;1.20;;;1.00;;
7471;SDS011;3777;48.722;8.110;2023-04-01T01:16:46;3.50;;;1.30;;
7471;SDS011;3777;48.722;8.110;2023-04-01T01:19:26;1.93;;;1.13;;
7471;SDS011;3777;48.722;8.110;2023-04-01T01:22:19;1.57;;;1.13;;
7471;SDS011;3777;48.722;8.110;2023-04-01T01:25:06;1.00;;;0.90;;
7471;SDS011;3777;48.722;8.110;2023-04-01T01:27:45;2.77;;;1.13;;
7471;SDS011;3777;48.722;8.110;2023-04-01T01:30:25;1.63;;;1.13;;
7471;SDS011;3777;48.722;8.110;2023-04-01T01:33:06;1.50;;;0.90;;
7471;SDS011;3777;48.722;8.110;2023-04-01T01:35:56;2.07;;;1.00;;
7471;SDS011;3777;48.722;8.110;2023-04-01T01:38:29;1.47;;;1.10;;
7471;SDS011;3777;48.722;8.110;2023-04-01T01:41:00;1.63;;;1.00;;
7471;SDS011;3777;48.722;8.110;2023-04-01T01:43:29;2.13;;;0.97;;
7471;SDS011;3777;48.722;8.110;2023-04-01T01:45:59;2.13;;;1.00;;
7471;SDS011;3777;48.722;8.110;2023-04-01T01:48:29;1.37;;;1.10;;
7471;SDS011;3777;48.722;8.110;2023-04-01T01:50:59;1.60;;;1.07;;
7471;SDS011;3777;48.722;8.110;2023-04-01T01:53:27;1.53;;;1.07;;
7471;SDS011;3777;48.722;8.110;2023-04-01T01:55:54;1.10;;;1.00;;
7471;SDS011;3777;48.722;8.110;2023-04-01T01:58:22;1.00;;;0.90;;
7471;SDS011;3777;48.722;8.110;2023-04-01T02:00:52;0.90;;;0.90;;
7471;SDS011;3777;48.722;8.110;2023-04-01T02:03:22;1.47;;;0.90;;
7471;SDS011;3777;48.722;8.110;2023-04-01T02:05:53;1.53;;;1.00;;
7471;SDS011;3777;48.722;8.110;2023-04-01T02:08:25;1.13;;;1.00;;
7471;SDS011;3777;48.722;8.110;2023-04-01T02:10:56;1.90;;;1.10;;
7471;SDS011;3777;48.722;8.110;2023-04-01T02:13:27;1.53;;;1.10;;
7471;SDS011;3777;48.722;8.110;2023-04-01T02:15:59;2.30;;;1.30;;
7471;SDS011;3777;48.722;8.110;2023-04-01T02:18:30;1.10;;;1.00;;
7471;SDS011;3777;48.722;8.110;2023-04-01T02:20:59;1.77;;;1.03;;
7471;SDS011;3777;48.722;8.110;2023-04-01T02:23:29;1.10;;;1.00;;
7471;SDS011;3777;48.722;8.110;2023-04-01T02:25:56;1.53;;;1.10;;
7471;SDS011;3777;48.722;8.110;2023-04-01T02:28:24;2.00;;;1.27;;
7471;SDS011;3777;48.722;8.110;2023-04-01T02:30:51;1.77;;;1.33;;
7471;SDS011;3777;48.722;8.110;2023-04-01T02:33:19;2.03;;;1.10;;
7471;SDS011;3777;48.722;8.110;2023-04-01T02:35:46;1.37;;;1.07;;
7471;SDS011;3777;48.722;8.110;2023-04-01T02:38:14;1.33;;;1.20;;
7471;SDS011;3777;48.722;8.110;2023-04-01T02:40:44;1.80;;;1.00;;
7471;SDS011;3777;48.722;8.110;2023-04-01T02:43:12;2.30;;;1.33;;
7471;SDS011;3777;48.722;8.110;2023-04-01T02:45:39;1.50;;;1.10;;
7471;SDS011;3777;48.722;8.110;2023-04-01T02:48:06;1.33;;;1.07;;
7471;SDS011;3777;48.722;8.110;2023-04-01T02:50:33;1.10;;;1.00;;
7471;SDS011;3777;48.722;8.110;2023-04-01T02:53:00;1.20;;;1.00;;
7471;SDS011;3777;48.722;8.110;2023-04-01T02:55:28;1.10;;;1.00;;
7471;SDS011;3777;48.722;8.110;2023-04-01T02:57:57;1.20;;;1.10;;
7471;SDS011;3777;48.722;8.110;2023-04-01T03:00:24;2.60;;;1.10;;
7471;SDS011;3777;48.722;8.110;2023-04-01T03:02:52;3.43;;;1.20;;
7471;SDS011;3777;48.722;8.110;2023-04-01T03:05:19;3.00;;;1.10;;
7471;SDS011;3777;48.722;8.110;2023-04-01T03:07:47;2.03;;;1.30;;
7471;SDS011;3777;48.722;8.110;2023-04-01T03:10:16;1.63;;;1.20;;
7471;SDS011;3777;48.722;8.110;2023-04-01T03:12:43;1.83;;;1.50;;
7471;SDS011;3777;48.722;8.110;2023-04-01T03:15:12;1.83;;;1.23;;
7471;SDS011;3777;48.722;8.110;2023-04-01T03:17:40;1.80;;;1.23;;
7471;SDS011;3777;48.722;8.110;2023-04-01T03:20:08;1.87;;;1.20;;
7471;SDS011;3777;48.722;8.110;2023-04-01T03:22:36;2.30;;;1.10;;
7471;SDS011;3777;48.722;8.110;2023-04-01T03:25:03;3.53;;;1.37;;
7471;SDS011;3777;48.722;8.110;2023-04-01T03:27:32;1.73;;;1.20;;
7471;SDS011;3777;48.722;8.110;2023-04-01T03:30:00;3.57;;;1.40;;
7471;SDS011;3777;48.722;8.110;2023-04-01T03:32:28;3.63;;;1.50;;
7471;SDS011;3777;48.722;8.110;2023-04-01T03:34:55;4.07;;;1.50;;
7471;SDS011;3777;48.722;8.110;2023-04-01T03:37:22;2.87;;;1.40;;
7471;SDS011;3777;48.722;8.110;2023-04-01T03:39:49;4.07;;;1.57;;
7471;SDS011;3777;48.722;8.110;2023-04-01T03:42:16;3.83;;;1.67;;
7471;SDS011;3777;48.722;8.110;2023-04-01T03:44:43;3.63;;;1.70;;
7471;SDS011;3777;48.722;8.110;2023-04-01T03:47:10;4.37;;;1.50;;
7471;SDS011;3777;48.722;8.110;2023-04-01T03:49:39;5.47;;;1.90;;
7471;SDS011;3777;48.722;8.110;2023-04-01T03:52:07;3.90;;;1.73;;
7471;SDS011;3777;48.722;8.110;2023-04-01T03:54:35;3.03;;;1.50;;
7471;SDS011;3777;48.722;8.110;2023-04-01T03:57:03;4.43;;;1.50;;
7471;SDS011;3777;48.722;8.110;2023-04-01T03:59:29;2.97;;;1.50;;
7471;SDS011;3777;48.722;8.110;2023-04-01T04:01:56;4.30;;;2.07;;
7471;SDS011;3777;48.722;8.110;2023-04-01T04:04:23;2.23;;;1.50;;
7471;SDS011;3777;48.722;8.110;2023-04-01T04:06:52;3.67;;;1.80;;
7471;SDS011;3777;48.722;8.110;2023-04-01T04:09:19;3.90;;;1.63;;
7471;SDS011;3777;48.722;8.110;2023-04-01T04:11:46;5.00;;;1.70;;
7471;SDS011;3777;48.722;8.110;2023-04-01T04:14:13;5.50;;;1.70;;
7471;SDS011;3777;48.722;8.110;2023-04-01T04:16:40;3.57;;;1.70;;
7471;SDS011;3777;48.722;8.110;2023-04-01T04:19:07;3.27;;;1.50;;
7471;SDS011;3777;48.722;8.110;2023-04-01T04:21:34;3.67;;;1.80;;
7471;SDS011;3777;48.722;8.110;2023-04-01T04:24:03;4.70;;;1.57;;
7471;SDS011;3777;48.722;8.110;2023-04-01T04:26:30;4.33;;;1.50;;
7471;SDS011;3777;48.722;8.110;2023-04-01T04:28:57;4.67;;;1.60;;
7471;SDS011;3777;48.722;8.110;2023-04-01T04:31:24;3.27;;;1.30;;
7471;SDS011;3777;48.722;8.110;2023-04-01T04:33:51;3.00;;;1.30;;
7471;SDS011;3777;48.722;8.110;2023-04-01T04:36:19;5.43;;;1.40;;
7471;SDS011;3777;48.722;8.110;2023-04-01T04:38:46;2.23;;;1.27;;
7471;SDS011;3777;48.722;8.110;2023-04-01T04:41:15;1.90;;;1.27;;
7471;SDS011;3777;48.722;8.110;2023-04-01T04:43:48;1.73;;;1.10;;
7471;SDS011;3777;48.722;8.110;2023-04-01T04:46:16;1.57;;;1.10;;
7471;SDS011;3777;48.722;8.110;2023-04-01T04:48:43;1.47;;;1.03;;
7471;SDS011;3777;48.722;8.110;2023-04-01T04:51:12;1.80;;;1.00;;
7471;SDS011;3777;48.722;8.110;2023-04-01T04:53:40;1.73;;;0.90;;
7471;SDS011;3777;48.722;8.110;2023-04-01T04:56:07;1.27;;;1.13;;
7471;SDS011;3777;48.722;8.110;2023-04-01T04:58:36;2.57;;;1.10;;
7471;SDS011;3777;48.722;8.110;2023-04-01T05:01:06;3.50;;;1.23;;
7471;SDS011;3777;48.722;8.110;2023-04-01T05:03:35;3.17;;;1.23;;
7471;SDS011;3777;48.722;8.110;2023-04-01T05:06:02;5.00;;;1.20;;
7471;SDS011;3777;48.722;8.110;2023-04-01T05:08:30;2.63;;;1.40;;
7471;SDS011;3777;48.722;8.110;2023-04-01T05:10:57;3.63;;;1.30;;
7471;SDS011;3777;48.722;8.110;2023-04-01T05:13:24;3.27;;;1.40;;
7471;SDS011;3777;48.722;8.110;2023-04-01T05:15:53;1.97;;;1.20;;
7471;SDS011;3777;48.722;8.110;2023-04-01T05:18:20;2.10;;;1.30;;
7471;SDS011;3777;48.722;8.110;2023-04-01T05:20:47;2.73;;;1.30;;
7471;SDS011;3777;48.722;8.110;2023-04-01T05:23:15;2.40;;;1.40;;
7471;SDS011;3777;48.722;8.110;2023-04-01T05:25:43;2.30;;;1.30;;
7471;SDS011;3777;48.722;8.110;2023-04-01T05:28:11;2.63;;;1.20;;
7471;SDS011;3777;48.722;8.110;2023-04-01T05:30:39;2.47;;;1.40;;
7471;SDS011;3777;48.722;8.110;2023-04-01T05:33:09;3.70;;;1.50;;
7471;SDS011;3777;48.722;8.110;2023-04-01T05:35:36;1.97;;;1.20;;
7471;SDS011;3777;48.722;8.110;2023-04-01T05:38:03;3.37;;;1.37;;
7471;SDS011;3777;48.722;8.110;2023-04-01T05:40:31;2.80;;;1.40;;
7471;SDS011;3777;48.722;8.110;2023-04-01T05:42:58;2.50;;;1.30;;
7471;SDS011;3777;48.722;8.110;2023-04-01T05:45:25;3.13;;;1.20;;
7471;SDS011;3777;48.722;8.110;2023-04-01T05:47:52;2.37;;;1.20;;
7471;SDS011;3777;48.722;8.110;2023-04-01T05:50:21;3.80;;;1.40;;
7471;SDS011;3777;48.722;8.110;2023-04-01T05:52:48;2.63;;;1.50;;
7471;SDS011;3777;48.722;8.110;2023-04-01T05:55:15;3.23;;;1.33;;
7471;SDS011;3777;48.722;8.110;2023-04-01T05:57:42;2.70;;;1.20;;
7471;SDS011;3777;48.722;8.110;2023-04-01T06:00:11;4.27;;;1.57;;
7471;SDS011;3777;48.722;8.110;2023-04-01T06:02:39;4.07;;;1.47;;
7471;SDS011;3777;48.722;8.110;2023-04-01T06:05:11;3.43;;;1.37;;
7471;SDS011;3777;48.722;8.110;2023-04-01T06:07:42;2.73;;;1.70;;
7471;SDS011;3777;48.722;8.110;2023-04-01T06:10:11;4.00;;;1.50;;
7471;SDS011;3777;48.722;8.110;2023-04-01T06:12:42;2.93;;;1.57;;
7471;SDS011;3777;48.722;8.110;2023-04-01T06:15:17;4.57;;;1.90;;
7471;SDS011;3777;48.722;8.110;2023-04-01T06:17:56;4.83;;;1.70;;
7471;SDS011;3777;48.722;8.110;2023-04-01T06:20:36;1.57;;;1.20;;
7471;SDS011;3777;48.722;8.110;2023-04-01T06:23:12;2.63;;;1.50;;
7471;SDS011;3777;48.722;8.110;2023-04-01T06:26:04;5.13;;;1.93;;
7471;SDS011;3777;48.722;8.110;2023-04-01T06:32:09;2.80;;;1.47;;
7471;SDS011;3777;48.722;8.110;2023-04-01T06:34:52;4.53;;;2.00;;
7471;SDS011;3777;48.722;8.110;2023-04-01T06:37:45;2.73;;;1.60;;
7471;SDS011;3777;48.722;8.110;2023-04-01T06:43:24;2.97;;;1.40;;
7471;SDS011;3777;48.722;8.110;2023-04-01T06:46:01;3.40;;;1.40;;
7471;SDS011;3777;48.722;8.110;2023-04-01T06:48:39;7.10;;;1.67;;
7471;SDS011;3777;48.722;8.110;2023-04-01T06:51:26;4.50;;;1.80;;
7471;SDS011;3777;48.722;8.110;2023-04-01T06:54:01;7.23;;;2.20;;
7471;SDS011;3777;48.722;8.110;2023-04-01T06:56:33;6.57;;;1.97;;
7471;SDS011;3777;48.722;8.110;2023-04-01T06:59:04;6.73;;;1.73;;
7471;SDS011;3777;48.722;8.110;2023-04-01T07:01:35;5.17;;;1.70;;
7471;SDS011;3777;48.722;8.110;2023-04-01T07:04:09;5.33;;;1.77;;
7471;SDS011;3777;48.722;8.110;2023-04-01T07:06:42;5.60;;;1.77;;
7471;SDS011;3777;48.722;8.110;2023-04-01T07:09:13;6.33;;;2.10;;
7471;SDS011;3777;48.722;8.110;2023-04-01T07:11:45;3.73;;;1.50;;
7471;SDS011;3777;48.722;8.110;2023-04-01T07:14:13;4.90;;;1.90;;
7471;SDS011;3777;48.722;8.110;2023-04-01T07:16:47;4.30;;;1.73;;
7471;SDS011;3777;48.722;8.110;2023-04-01T07:19:18;8.43;;;2.13;;
7471;SDS011;3777;48.722;8.110;2023-04-01T07:21:51;5.93;;;1.93;;
7471;SDS011;3777;48.722;8.110;2023-04-01T07:24:24;4.97;;;1.77;;
7471;SDS011;3777;48.722;8.110;2023-04-01T07:26:55;5.20;;;2.00;;
7471;SDS011;3777;48.722;8.110;2023-04-01T07:29:23;7.33;;;2.03;;
7471;SDS011;3777;48.722;8.110;2023-04-01T07:31:59;8.27;;;2.40;;
7471;SDS011;3777;48.722;8.110;2023-04-01T07:34:36;6.37;;;2.63;;
7471;SDS011;3777;48.722;8.110;2023-04-01T07:37:12;5.93;;;1.93;;
7471;SDS011;3777;48.722;8.110;2023-04-01T07:39:45;3.70;;;2.03;;
7471;SDS011;3777;48.722;8.110;2023-04-01T07:42:26;5.67;;;2.30;;
7471;SDS011;3777;48.722;8.110;2023-04-01T07:45:06;7.60;;;2.20;;
7471;SDS011;3777;48.722;8.110;2023-04-01T07:47:45;6.67;;;2.23;;
7471;SDS011;3777;48.722;8.110;2023-04-01T07:50:31;6.20;;;2.30;;
7471;SDS011;3777;48.722;8.110;2023-04-01T07:53:06;10.20;;;2.37;;
7471;SDS011;3777;48.722;8.110;2023-04-01T07:55:42;9.10;;;2.30;;
7471;SDS011;3777;48.722;8.110;2023-04-01T07:58:19;5.97;;;2.47;;
7471;SDS011;3777;48.722;8.110;2023-04-01T08:00:55;7.70;;;2.37;;
7471;SDS011;3777;48.722;8.110;2023-04-01T08:03:31;7.80;;;2.20;;
7471;SDS011;3777;48.722;8.110;2023-04-01T08:06:06;7.77;;;2.20;;
7471;SDS011;3777;48.722;8.110;2023-04-01T08:08:41;5.33;;;2.50;;
7471;SDS011;3777;48.722;8.110;2023-04-01T08:11:21;8.50;;;2.20;;
7471;SDS011;3777;48.722;8.110;2023-04-01T08:13:58;9.70;;;2.73;;
7471;SDS011;3777;48.722;8.110;2023-04-01T08:16:35;9.60;;;2.60;;
7471;SDS011;3777;48.722;8.110;2023-04-01T08:19:11;7.87;;;2.03;;
7471;SDS011;3777;48.722;8.110;2023-04-01T08:21:45;7.80;;;2.17;;
7471;SDS011;3777;48.722;8.110;2023-04-01T08:24:18;4.90;;;2.07;;
7471;SDS011;3777;48.722;8.110;2023-04-01T08:26:51;9.00;;;2.40;;
7471;SDS011;3777;48.722;8.110;2023-04-01T08:29:23;8.00;;;2.10;;
7471;SDS011;3777;48.722;8.110;2023-04-01T08:32:01;6.53;;;2.10;;
7471;SDS011;3777;48.722;8.110;2023-04-01T08:34:34;7.03;;;2.17;;
7471;SDS011;3777;48.722;8.110;2023-04-01T08:37:04;4.90;;;2.20;;
7471;SDS011;3777;48.722;8.110;2023-04-01T08:39:35;6.10;;;2.23;;
7471;SDS011;3777;48.722;8.110;2023-04-01T08:42:25;5.83;;;2.20;;
7471;SDS011;3777;48.722;8.110;2023-04-01T08:48:15;3.97;;;2.07;;
7471;SDS011;3777;48.722;8.110;2023-04-01T08:51:06;4.87;;;2.10;;
7471;SDS011;3777;48.722;8.110;2023-04-01T08:53:57;5.03;;;2.90;;
7471;SDS011;3777;48.722;8.110;2023-04-01T08:56:47;4.20;;;1.90;;
7471;SDS011;3777;48.722;8.110;2023-04-01T09:02:23;2.37;;;1.50;;
7471;SDS011;3777;48.722;8.110;2023-04-01T09:08:05;2.27;;;1.60;;
7471;SDS011;3777;48.722;8.110;2023-04-01T09:10:51;4.47;;;2.07;;
7471;SDS011;3777;48.722;8.110;2023-04-01T09:13:29;4.57;;;1.60;;
7471;SDS011;3777;48.722;8.110;2023-04-01T09:16:17;3.20;;;1.80;;
7471;SDS011;3777;48.722;8.110;2023-04-01T09:21:57;5.30;;;3.43;;
7471;SDS011;3777;48.722;8.110;2023-04-01T09:27:54;4.27;;;2.00;;
7471;SDS011;3777;48.722;8.110;2023-04-01T09:30:34;4.10;;;1.87;;
7471;SDS011;3777;48.722;8.110;2023-04-01T09:36:42;5.80;;;2.93;;
7471;SDS011;3777;48.722;8.110;2023-04-01T09:39:21;5.07;;;2.57;;
7471;SDS011;3777;48.722;8.110;2023-04-01T09:42:05;5.53;;;2.60;;
7471;SDS011;3777;48.722;8.110;2023-04-01T09:44:41;3.93;;;2.67;;
7471;SDS011;3777;48.722;8.110;2023-04-01T09:47:16;3.47;;;2.10;;
7471;SDS011;3777;48.722;8.110;2023-04-01T09:50:10;2.83;;;1.90;;
7471;SDS011;3777;48.722;8.110;2023-04-01T09:52:51;3.47;;;2.27;;
7471;SDS011;3777;48.722;8.110;2023-04-01T09:58:39;3.53;;;1.87;;
7471;SDS011;3777;48.722;8.110;2023-04-01T10:01:39;3.27;;;1.90;;
7471;SDS011;3777;48.722;8.110;2023-04-01T10:04:34;2.93;;;1.87;;
7471;SDS011;3777;48.722;8.110;2023-04-01T10:10:36;3.83;;;2.07;;
7471;SDS011;3777;48.722;8.110;2023-04-01T10:25:53;5.07;;;2.10;;
7471;SDS011;3777;48.722;8.110;2023-04-01T10:28:42;5.23;;;2.30;;
7471;SDS011;3777;48.722;8.110;2023-04-01T10:37:42;5.70;;;3.93;;
7471;SDS011;3777;48.722;8.110;2023-04-01T10:40:37;2.63;;;2.10;;
7471;SDS011;3777;48.722;8.110;2023-04-01T10:46:35;4.63;;;2.70;;
7471;SDS011;3777;48.722;8.110;2023-04-01T10:49:37;4.50;;;2.00;;
7471;SDS011;3777;48.722;8.110;2023-04-01T10:52:18;6.27;;;2.37;;
7471;SDS011;3777;48.722;8.110;2023-04-01T10:54:59;3.50;;;1.77;;
7471;SDS011;3777;48.722;8.110;2023-04-01T10:57:53;4.40;;;1.90;;
7471;SDS011;3777;48.722;8.110;2023-04-01T11:00:40;2.93;;;1.90;;
7471;SDS011;3777;48.722;8.110;2023-04-01T11:10:20;4.20;;;2.60;;
7471;SDS011;3777;48.722;8.110;2023-04-01T11:13:18;3.00;;;2.30;;
7471;SDS011;3777;48.722;8.110;2023-04-01T11:22:35;2.80;;;1.50;;
7471;SDS011;3777;48.722;8.110;2023-04-01T11:25:18;2.13;;;1.40;;
7471;SDS011;3777;48.722;8.110;2023-04-01T11:28:08;2.40;;;1.57;;
7471;SDS011;3777;48.722;8.110;2023-04-01T11:31:04;2.20;;;1.57;;
7471;SDS011;3777;48.722;8.110;2023-04-01T11:33:47;3.00;;;1.53;;
7471;SDS011;3777;48.722;8.110;2023-04-01T11:36:25;2.60;;;1.70;;
7471;SDS011;3777;48.722;8.110;2023-04-01T11:39:07;2.80;;;1.50;;
7471;SDS011;3777;48.722;8.110;2023-04-01T11:41:49;2.47;;;1.50;;
7471;SDS011;3777;48.722;8.110;2023-04-01T11:44:26;3.23;;;1.70;;
7471;SDS011;3777;48.722;8.110;2023-04-01T11:47:10;1.73;;;1.47;;
7471;SDS011;3777;48.722;8.110;2023-04-01T11:49:53;1.43;;;1.20;;
7471;SDS011;3777;48.722;8.110;2023-04-01T11:52:33;1.40;;;1.30;;
7471;SDS011;3777;48.722;8.110;2023-04-01T11:55:23;1.20;;;1.10;;
7471;SDS011;3777;48.722;8.110;2023-04-01T12:00:59;1.30;;;1.20;;
7471;SDS011;3777;48.722;8.110;2023-04-01T12:06:48;1.30;;;1.20;;
7471;SDS011;3777;48.722;8.110;2023-04-01T12:09:20;2.17;;;1.60;;
7471;SDS011;3777;48.722;8.110;2023-04-01T12:11:58;1.53;;;1.10;;
7471;SDS011;3777;48.722;8.110;2023-04-01T12:14:38;1.47;;;1.17;;
7471;SDS011;3777;48.722;8.110;2023-04-01T12:17:14;1.20;;;1.10;;
7471;SDS011;3777;48.722;8.110;2023-04-01T12:19:48;1.00;;;1.00;;
7471;SDS011;3777;48.722;8.110;2023-04-01T12:22:23;1.00;;;1.00;;
7471;SDS011;3777;48.722;8.110;2023-04-01T12:25:04;1.27;;;1.17;;
7471;SDS011;3777;48.722;8.110;2023-04-01T12:27:45;1.33;;;1.23;;
7471;SDS011;3777;48.722;8.110;2023-04-01T12:30:47;1.67;;;1.20;;
7471;SDS011;3777;48.722;8.110;2023-04-01T12:33:50;1.40;;;1.10;;
7471;SDS011;3777;48.722;8.110;2023-04-01T12:36:30;1.40;;;1.30;;
7471;SDS011;3777;48.722;8.110;2023-04-01T12:39:31;1.30;;;1.20;;
7471;SDS011;3777;48.722;8.110;2023-04-01T12:42:11;1.80;;;1.20;;
7471;SDS011;3777;48.722;8.110;2023-04-01T12:44:49;1.57;;;1.47;;
7471;SDS011;3777;48.722;8.110;2023-04-01T12:50:29;1.10;;;1.00;;
7471;SDS011;3777;48.722;8.110;2023-04-01T12:53:21;1.37;;;1.27;;
7471;SDS011;3777;48.722;8.110;2023-04-01T12:56:02;1.93;;;1.20;;
7471;SDS011;3777;48.722;8.110;2023-04-01T12:58:40;2.13;;;1.23;;
7471;SDS011;3777;48.722;8.110;2023-04-01T13:01:49;2.00;;;1.50;;
7471;SDS011;3777;48.722;8.110;2023-04-01T13:04:40;1.60;;;1.50;;
7471;SDS011;3777;48.722;8.110;2023-04-01T13:07:45;1.40;;;1.20;;
7471;SDS011;3777;48.722;8.110;2023-04-01T13:13:42;1.60;;;1.50;;
7471;SDS011;3777;48.722;8.110;2023-04-01T13:16:24;1.57;;;1.30;;
7471;SDS011;3777;48.722;8.110;2023-04-01T13:18:55;2.90;;;1.50;;
7471;SDS011;3777;48.722;8.110;2023-04-01T13:21:32;1.30;;;1.10;;
7471;SDS011;3777;48.722;8.110;2023-04-01T13:24:09;3.00;;;1.20;;
7471;SDS011;3777;48.722;8.110;2023-04-01T13:26:50;1.87;;;1.00;;
7471;SDS011;3777;48.722;8.110;2023-04-01T13:29:25;3.47;;;1.20;;
7471;SDS011;3777;48.722;8.110;2023-04-01T13:32:01;2.10;;;1.30;;
7471;SDS011;3777;48.722;8.110;2023-04-01T13:34:39;2.07;;;1.50;;
7471;SDS011;3777;48.722;8.110;2023-04-01T13:37:24;2.13;;;1.63;;
7471;SDS011;3777;48.722;8.110;2023-04-01T13:40:04;1.60;;;1.50;;
7471;SDS011;3777;48.722;8.110;2023-04-01T13:42:47;2.30;;;1.50;;
7471;SDS011;3777;48.722;8.110;2023-04-01T13:45:19;2.10;;;1.53;;
7471;SDS011;3777;48.722;8.110;2023-04-01T13:47:59;2.93;;;1.70;;
7471;SDS011;3777;48.722;8.110;2023-04-01T13:50:51;3.17;;;1.40;;
7471;SDS011;3777;48.722;8.110;2023-04-01T13:53:55;3.20;;;1.70;;
7471;SDS011;3777;48.722;8.110;2023-04-01T13:56:42;1.60;;;1.47;;
7471;SDS011;3777;48.722;8.110;2023-04-01T13:59:22;2.77;;;1.47;;
7471;SDS011;3777;48.722;8.110;2023-04-01T14:02:10;1.33;;;1.23;;
7471;SDS011;3777;48.722;8.110;2023-04-01T14:04:53;2.00;;;1.40;;
7471;SDS011;3777;48.722;8.110;2023-04-01T14:07:40;2.63;;;1.50;;
7471;SDS011;3777;48.722;8.110;2023-04-01T14:10:20;3.57;;;2.57;;
7471;SDS011;3777;48.722;8.110;2023-04-01T14:12:58;2.40;;;2.20;;
7471;SDS011;3777;48.722;8.110;2023-04-01T14:18:41;2.40;;;2.20;;
7471;SDS011;3777;48.722;8.110;2023-04-01T14:21:21;8.30;;;6.00;;
7471;SDS011;3777;48.722;8.110;2023-04-01T14:24:01;4.57;;;3.40;;
7471;SDS011;3777;48.722;8.110;2023-04-01T14:29:37;5.73;;;5.17;;
7471;SDS011;3777;48.722;8.110;2023-04-01T14:32:15;2.47;;;2.27;;
7471;SDS011;3777;48.722;8.110;2023-04-01T14:34:56;3.50;;;2.40;;
7471;SDS011;3777;48.722;8.110;2023-04-01T14:37:41;2.73;;;2.03;;
7471;SDS011;3777;48.722;8.110;2023-04-01T14:40:28;2.30;;;1.97;;
7471;SDS011;3777;48.722;8.110;2023-04-01T14:43:12;2.23;;;1.70;;
7471;SDS011;3777;48.722;8.110;2023-04-01T14:48:49;2.50;;;1.80;;
7471;SDS011;3777;48.722;8.110;2023-04-01T14:51:18;1.50;;;1.40;;
7471;SDS011;3777;48.722;8.110;2023-04-01T14:53:53;1.87;;;1.50;;
7471;SDS011;3777;48.722;8.110;2023-04-01T14:56:36;2.00;;;1.63;;
7471;SDS011;3777;48.722;8.110;2023-04-01T14:59:09;2.90;;;1.60;;
7471;SDS011;3777;48.722;8.110;2023-04-01T15:01:43;2.13;;;1.60;;
7471;SDS011;3777;48.722;8.110;2023-04-01T15:04:20;3.53;;;2.43;;
7471;SDS011;3777;48.722;8.110;2023-04-01T15:07:10;2.40;;;2.20;;
7471;SDS011;3777;48.722;8.110;2023-04-01T15:09:49;2.97;;;1.60;;
7471;SDS011;3777;48.722;8.110;2023-04-01T15:12:23;1.60;;;1.50;;
7471;SDS011;3777;48.722;8.110;2023-04-01T15:15:11;3.37;;;1.80;;
7471;SDS011;3777;48.722;8.110;2023-04-01T15:18:01;3.50;;;1.60;;
7471;SDS011;3777;48.722;8.110;2023-04-01T15:20:40;2.20;;;1.30;;
7471;SDS011;3777;48.722;8.110;2023-04-01T15:23:23;1.60;;;1.50;;
7471;SDS011;3777;48.722;8.110;2023-04-01T15:26:07;2.93;;;2.10;;
7471;SDS011;3777;48.722;8.110;2023-04-01T15:28:45;2.73;;;2.00;;
7471;SDS011;3777;48.722;8.110;2023-04-01T15:31:25;3.37;;;2.13;;
7471;SDS011;3777;48.722;8.110;2023-04-01T15:34:02;3.67;;;2.03;;
7471;SDS011;3777;48.722;8.110;2023-04-01T15:36:44;5.20;;;2.40;;
7471;SDS011;3777;48.722;8.110;2023-04-01T15:39:18;2.80;;;2.00;;
7471;SDS011;3777;48.722;8.110;2023-04-01T15:42:04;4.17;;;2.43;;
7471;SDS011;3777;48.722;8.110;2023-04-01T15:44:43;3.57;;;2.50;;
7471;SDS011;3777;48.722;8.110;2023-04-01T15:47:31;3.90;;;2.37;;
7471;SDS011;3777;48.722;8.110;2023-04-01T15:52:57;3.47;;;1.77;;
7471;SDS011;3777;48.722;8.110;2023-04-01T15:55:37;2.77;;;1.87;;
7471;SDS011;3777;48.722;8.110;2023-04-01T15:58:19;2.63;;;1.70;;
7471;SDS011;3777;48.722;8.110;2023-04-01T16:00:56;2.30;;;1.60;;
7471;SDS011;3777;48.722;8.110;2023-04-01T16:03:37;3.67;;;2.00;;
7471;SDS011;3777;48.722;8.110;2023-04-01T16:06:24;2.43;;;1.97;;
7471;SDS011;3777;48.722;8.110;2023-04-01T16:09:06;2.77;;;1.93;;
7471;SDS011;3777;48.722;8.110;2023-04-01T16:11:47;4.70;;;2.23;;
7471;SDS011;3777;48.722;8.110;2023-04-01T16:14:28;2.50;;;1.80;;
7471;SDS011;3777;48.722;8.110;2023-04-01T16:17:05;2.87;;;2.00;;
7471;SDS011;3777;48.722;8.110;2023-04-01T16:19:44;3.10;;;2.00;;
7471;SDS011;3777;48.722;8.110;2023-04-01T16:22:20;2.27;;;1.80;;
7471;SDS011;3777;48.722;8.110;2023-04-01T16:24:52;2.60;;;1.90;;
7471;SDS011;3777;48.722;8.110;2023-04-01T16:27:25;3.33;;;1.70;;
7471;SDS011;3777;48.722;8.110;2023-04-01T16:30:00;2.00;;;1.80;;
7471;SDS011;3777;48.722;8.110;2023-04-01T16:32:48;2.97;;;1.70;;
7471;SDS011;3777;48.722;8.110;2023-04-01T16:35:23;3.47;;;2.00;;
7471;SDS011;3777;48.722;8.110;2023-04-01T16:38:01;2.83;;;2.00;;
7471;SDS011;3777;48.722;8.110;2023-04-01T16:40:41;2.97;;;2.67;;
7471;SDS011;3777;48.722;8.110;2023-04-01T16:43:15;2.07;;;1.87;;
7471;SDS011;3777;48.722;8.110;2023-04-01T16:45:53;4.53;;;2.40;;
7471;SDS011;3777;48.722;8.110;2023-04-01T16:48:34;2.73;;;1.77;;
7471;SDS011;3777;48.722;8.110;2023-04-01T16:51:12;4.53;;;2.47;;
7471;SDS011;3777;48.722;8.110;2023-04-01T16:53:45;3.17;;;1.70;;
7471;SDS011;3777;48.722;8.110;2023-04-01T16:56:16;3.10;;;1.40;;
7471;SDS011;3777;48.722;8.110;2023-04-01T16:58:55;2.07;;;1.90;;
7471;SDS011;3777;48.722;8.110;2023-04-01T17:01:29;1.97;;;1.60;;
7471;SDS011;3777;48.722;8.110;2023-04-01T17:04:07;3.20;;;2.37;;
7471;SDS011;3777;48.722;8.110;2023-04-01T17:06:44;2.63;;;2.10;;
7471;SDS011;3777;48.722;8.110;2023-04-01T17:09:20;2.97;;;1.80;;
7471;SDS011;3777;48.722;8.110;2023-04-01T17:11:56;6.33;;;1.93;;
7471;SDS011;3777;48.722;8.110;2023-04-01T17:14:32;4.23;;;2.33;;
7471;SDS011;3777;48.722;8.110;2023-04-01T17:17:13;3.77;;;1.83;;
7471;SDS011;3777;48.722;8.110;2023-04-01T17:19:55;4.40;;;1.70;;
7471;SDS011;3777;48.722;8.110;2023-04-01T17:22:31;3.53;;;2.10;;
7471;SDS011;3777;48.722;8.110;2023-04-01T17:25:17;2.60;;;1.60;;
7471;SDS011;3777;48.722;8.110;2023-04-01T17:27:57;3.50;;;1.73;;
7471;SDS011;3777;48.722;8.110;2023-04-01T17:30:30;2.30;;;1.67;;
7471;SDS011;3777;48.722;8.110;2023-04-01T17:33:13;3.87;;;1.60;;
7471;SDS011;3777;48.722;8.110;2023-04-01T17:35:57;2.23;;;1.97;;
7471;SDS011;3777;48.722;8.110;2023-04-01T17:38:33;4.00;;;1.70;;
7471;SDS011;3777;48.722;8.110;2023-04-01T17:41:19;5.10;;;2.13;;